createdAt,value
2023-05-13T00:04:40.565Z,49.96
2023-05-13T00:09:43.237Z,50.03
2023-05-13T00:14:45.853Z,50.63
2023-05-13T00:19:48.577Z,50.96
2023-05-13T00:24:56.996Z,51.56
2023-05-13T00:30:00.206Z,52.09
2023-05-13T00:35:03.050Z,53.35
2023-05-13T00:40:20.167Z,54.16
2023-05-13T00:45:23.773Z,54.04
2023-05-13T00:50:26.619Z,54.91
2023-05-13T00:55:29.483Z,55.49
2023-05-13T01:00:35.729Z,55.74
2023-05-13T01:05:59.850Z,56.50
2023-05-13T01:11:11.951Z,57.04
2023-05-13T01:16:53.362Z,57.20
2023-05-13T01:21:56.566Z,56.45
2023-05-13T01:27:00.274Z,56.55
2023-05-13T01:32:03.508Z,56.97
2023-05-13T01:37:06.596Z,56.08
2023-05-13T01:42:09.529Z,52.88
2023-05-13T01:47:12.407Z,49.20
2023-05-13T01:52:15.153Z,45.79
2023-05-13T01:57:18.000Z,41.45
2023-05-13T02:02:20.765Z,38.27
2023-05-13T02:07:24.305Z,33.61
2023-05-13T02:12:27.408Z,30.06
2023-05-13T02:17:30.207Z,28.21
2023-05-13T02:22:33.223Z,25.98
2023-05-13T02:27:35.978Z,24.22
2023-05-13T02:32:42.876Z,22.96
2023-05-13T02:37:46.698Z,21.08
2023-05-13T02:42:49.744Z,20.00
2023-05-13T02:47:58.216Z,18.63
2023-05-13T02:53:01.276Z,18.89
2023-05-13T02:58:05.402Z,19.18
2023-05-13T03:03:08.532Z,24.72
2023-05-13T03:08:12.159Z,27.21
2023-05-13T03:13:17.738Z,29.32
2023-05-13T03:18:20.371Z,31.16
2023-05-13T03:23:25.954Z,31.94
2023-05-13T03:28:31.957Z,33.20
2023-05-13T03:33:37.637Z,33.29
2023-05-13T03:38:40.788Z,33.43
2023-05-13T03:43:44.628Z,35.50
2023-05-13T03:48:49.464Z,36.66
2023-05-13T03:53:52.323Z,37.55
2023-05-13T03:58:55.394Z,37.81
2023-05-13T04:03:58.166Z,38.72
2023-05-13T04:09:02.369Z,38.75
2023-05-13T04:14:05.072Z,39.53
2023-05-13T04:19:07.911Z,39.82
2023-05-13T04:24:11.011Z,39.29
2023-05-13T04:29:13.737Z,39.59
2023-05-13T04:34:17.607Z,39.45
2023-05-13T04:39:21.963Z,39.37
2023-05-13T04:44:24.666Z,39.25
2023-05-13T04:49:27.703Z,39.19
2023-05-13T04:54:30.986Z,39.32
2023-05-13T04:59:33.847Z,39.23
2023-05-13T05:04:37.204Z,38.55
2023-05-13T05:09:45.758Z,38.42
2023-05-13T05:14:48.892Z,37.69
2023-05-13T05:19:51.765Z,37.28
2023-05-13T05:24:54.537Z,37.35
2023-05-13T05:29:57.279Z,37.44
2023-05-13T05:35:02.375Z,36.92
2023-05-13T05:40:07.584Z,35.63
2023-05-13T05:45:14.542Z,34.74
2023-05-13T05:50:18.088Z,34.21
2023-05-13T05:55:21.301Z,33.26
2023-05-13T06:00:24.640Z,31.39
2023-05-13T06:05:27.987Z,30.63
2023-05-13T06:10:30.751Z,30.27
2023-05-13T06:15:34.069Z,30.15
2023-05-13T06:20:36.902Z,29.93
2023-05-13T06:25:39.552Z,29.61
2023-05-13T06:30:44.422Z,29.18
2023-05-13T06:35:49.571Z,27.94
2023-05-13T06:40:53.877Z,28.02
2023-05-13T06:46:02.738Z,27.33
2023-05-13T06:51:06.037Z,27.88
2023-05-13T06:56:08.872Z,27.38
2023-05-13T07:01:11.673Z,28.37
2023-05-13T07:06:14.388Z,28.15
2023-05-13T07:11:17.248Z,27.36
2023-05-13T07:16:19.836Z,28.09
2023-05-13T07:21:22.752Z,28.04
2023-05-13T07:26:25.476Z,28.13
2023-05-13T07:31:29.064Z,27.79
2023-05-13T07:36:32.050Z,27.94
2023-05-13T07:41:36.349Z,27.57
2023-05-13T07:46:39.071Z,26.45
2023-05-13T07:51:42.052Z,26.90
2023-05-13T07:56:46.698Z,27.04
2023-05-13T08:01:49.494Z,27.25
2023-05-13T08:06:52.145Z,26.98
2023-05-13T08:11:54.904Z,26.47
2023-05-13T08:16:57.644Z,26.22
2023-05-13T08:22:00.313Z,25.49
2023-05-13T08:27:03.560Z,25.51
2023-05-13T08:32:07.038Z,25.80
2023-05-13T08:37:09.721Z,24.80
2023-05-13T08:42:15.270Z,24.71
2023-05-13T08:47:41.618Z,24.14
2023-05-13T08:52:44.546Z,23.65
2023-05-13T08:57:47.252Z,23.69
2023-05-13T09:02:51.369Z,23.92
2023-05-13T09:07:55.999Z,24.19
2023-05-13T09:12:59.144Z,23.30
2023-05-13T09:18:05.027Z,23.44
2023-05-13T09:23:10.708Z,23.71
2023-05-13T09:28:15.124Z,23.99
2023-05-13T09:33:22.802Z,23.72
2023-05-13T09:38:27.808Z,24.07
2023-05-13T09:43:34.577Z,23.84
2023-05-13T09:48:44.426Z,21.75
2023-05-13T09:53:50.885Z,22.56
2023-05-13T09:58:53.653Z,22.63
2023-05-13T10:03:59.709Z,22.74
2023-05-13T10:09:03.842Z,21.38
2023-05-13T10:14:07.573Z,21.30
2023-05-13T10:19:10.914Z,21.53
2023-05-13T10:24:14.551Z,21.42
2023-05-13T10:29:17.798Z,22.06
2023-05-13T10:34:22.538Z,22.29
2023-05-13T10:40:06.595Z,22.68
2023-05-13T10:45:10.390Z,22.85
2023-05-13T10:50:26.074Z,22.98
2023-05-13T10:55:28.843Z,23.09
2023-05-13T11:00:32.405Z,21.87
2023-05-13T11:05:35.154Z,22.92
2023-05-13T11:10:38.033Z,22.46
2023-05-13T11:15:50.738Z,22.08
2023-05-13T11:20:54.199Z,22.89
2023-05-13T11:26:12.416Z,23.11
2023-05-13T11:31:19.386Z,23.05
2023-05-13T11:36:22.206Z,22.13
2023-05-13T11:41:25.160Z,22.38
2023-05-13T11:46:27.967Z,23.23
2023-05-13T11:51:32.116Z,22.72
2023-05-13T11:56:36.313Z,22.22
2023-05-13T12:01:38.951Z,22.47
2023-05-13T12:06:46.007Z,22.49
2023-05-13T12:11:49.894Z,22.40
2023-05-13T12:16:52.733Z,22.12
2023-05-13T12:21:55.511Z,21.96
2023-05-13T12:27:05.469Z,21.21
2023-05-13T12:32:08.631Z,21.18
2023-05-13T12:37:13.038Z,22.08
2023-05-13T12:42:19.124Z,21.53
2023-05-13T12:47:23.273Z,22.03
2023-05-13T12:52:26.184Z,21.20
2023-05-13T12:57:30.546Z,21.09
2023-05-13T13:02:34.865Z,21.28
2023-05-13T13:07:38.290Z,21.53
2023-05-13T13:12:41.507Z,21.68
2023-05-13T13:17:44.405Z,21.68
2023-05-13T13:22:47.031Z,21.70
2023-05-13T13:27:49.816Z,22.28
2023-05-13T13:32:52.539Z,22.29
2023-05-13T13:37:55.593Z,22.54
2023-05-13T13:42:58.179Z,22.47
2023-05-13T13:48:00.977Z,22.64
2023-05-13T13:53:03.678Z,22.80
2023-05-13T13:58:06.388Z,23.03
2023-05-13T14:03:09.107Z,23.46
2023-05-13T14:08:12.052Z,23.25
2023-05-13T14:13:14.696Z,22.93
2023-05-13T14:18:17.382Z,23.26
2023-05-13T14:23:20.043Z,23.71
2023-05-13T14:28:25.036Z,23.83
2023-05-13T14:33:27.766Z,23.88
2023-05-13T14:38:31.324Z,23.79
2023-05-13T14:43:34.339Z,24.31
2023-05-13T14:48:36.976Z,24.21
2023-05-13T14:53:40.020Z,24.50
2023-05-13T14:58:42.691Z,24.60
2023-05-13T15:03:45.388Z,24.81
2023-05-13T15:08:48.062Z,24.68
2023-05-13T15:13:50.741Z,24.59
2023-05-13T15:18:53.431Z,25.16
2023-05-13T15:23:56.104Z,26.38
2023-05-13T15:28:58.879Z,26.53
2023-05-13T15:34:03.327Z,26.41
2023-05-13T15:39:06.505Z,26.58
2023-05-13T15:44:09.164Z,26.52
2023-05-13T15:49:11.851Z,26.74
2023-05-13T15:54:14.448Z,26.89
2023-05-13T15:59:17.153Z,27.05
2023-05-13T16:04:19.831Z,27.42
2023-05-13T16:09:22.592Z,27.62
2023-05-13T16:14:25.282Z,27.54
2023-05-13T16:19:28.007Z,27.90
2023-05-13T16:24:30.577Z,27.90
2023-05-13T16:29:33.279Z,28.07
2023-05-13T16:34:35.891Z,28.26
2023-05-13T16:39:38.581Z,28.85
2023-05-13T16:44:41.327Z,29.20
2023-05-13T16:49:45.454Z,29.58
2023-05-13T16:54:48.686Z,30.00
2023-05-13T16:59:51.398Z,30.12
2023-05-13T17:04:54.055Z,30.75
2023-05-13T17:09:56.839Z,31.31
2023-05-13T17:14:59.586Z,31.28
2023-05-13T17:20:02.292Z,32.00
2023-05-13T17:25:07.303Z,32.24
2023-05-13T17:30:10.359Z,32.71
2023-05-13T17:35:13.342Z,33.34
2023-05-13T17:40:15.948Z,33.67
2023-05-13T17:45:18.620Z,34.00
2023-05-13T17:50:21.657Z,34.89
2023-05-13T17:55:24.498Z,35.17
2023-05-13T18:00:27.776Z,35.53
2023-05-13T18:05:30.925Z,35.83
2023-05-13T18:10:33.665Z,35.99
2023-05-13T18:15:36.429Z,36.52
2023-05-13T18:20:42.175Z,36.73
2023-05-13T18:25:55.005Z,37.07
2023-05-13T18:30:58.759Z,37.36
2023-05-13T18:36:02.271Z,37.87
2023-05-13T18:41:06.189Z,38.13
2023-05-13T18:46:09.777Z,38.41
2023-05-13T18:51:12.557Z,39.09
2023-05-13T18:56:16.237Z,38.89
2023-05-13T19:01:19.341Z,39.02
2023-05-13T19:06:22.206Z,39.39
2023-05-13T19:11:24.949Z,39.83
2023-05-13T19:16:27.823Z,40.33
2023-05-13T19:21:30.972Z,40.64
2023-05-13T19:26:35.113Z,41.29
2023-05-13T19:31:37.986Z,41.36
2023-05-13T19:36:42.279Z,42.08
2023-05-13T19:41:47.403Z,42.35
2023-05-13T19:46:50.153Z,42.32
2023-05-13T19:51:54.570Z,42.44
2023-05-13T19:56:57.262Z,42.71
2023-05-13T20:01:59.922Z,43.41
2023-05-13T20:07:02.634Z,43.62
2023-05-13T20:12:05.719Z,43.91
2023-05-13T20:17:08.678Z,44.39
2023-05-13T20:22:11.499Z,43.93
2023-05-13T20:27:14.938Z,44.37
2023-05-13T20:32:21.261Z,43.49
2023-05-13T20:37:24.641Z,42.85
2023-05-13T20:42:27.462Z,42.33
2023-05-13T20:47:30.179Z,42.33
2023-05-13T20:52:33.115Z,42.47
2023-05-13T20:57:36.819Z,42.61
2023-05-13T21:02:39.564Z,42.77
2023-05-13T21:07:42.207Z,42.87
2023-05-13T21:12:47.884Z,43.15
2023-05-13T21:17:50.802Z,43.52
2023-05-13T21:22:53.489Z,44.23
2023-05-13T21:27:56.132Z,44.53
2023-05-13T21:32:59.223Z,45.20
2023-05-13T21:38:11.541Z,45.60
2023-05-13T21:43:15.340Z,45.74
2023-05-13T21:48:18.248Z,47.09
2023-05-13T21:53:22.507Z,47.09
2023-05-13T21:58:25.220Z,47.20
2023-05-13T22:03:27.897Z,47.10
2023-05-13T22:08:30.668Z,47.10
2023-05-13T22:13:33.248Z,47.37
2023-05-13T22:18:36.180Z,47.97
2023-05-13T22:23:39.153Z,47.85
2023-05-13T22:28:41.856Z,48.61
2023-05-13T22:33:44.594Z,48.02
2023-05-13T22:38:47.384Z,48.67
2023-05-13T22:43:50.672Z,49.37
2023-05-13T22:48:53.536Z,49.13
2023-05-13T22:53:56.155Z,49.43
2023-05-13T22:58:58.875Z,49.85
2023-05-13T23:04:01.535Z,50.45
2023-05-13T23:09:04.422Z,51.15
2023-05-13T23:14:07.181Z,51.35
2023-05-13T23:19:10.528Z,51.76
2023-05-13T23:24:13.394Z,52.21
2023-05-13T23:29:16.733Z,52.45
2023-05-13T23:34:19.559Z,52.46
2023-05-13T23:39:22.194Z,53.15
2023-05-13T23:44:25.052Z,53.62
2023-05-13T23:49:27.973Z,53.82
2023-05-13T23:54:31.167Z,54.27
2023-05-13T23:59:33.876Z,54.66
